POGODA: Poland

Lotnisko: Katowice

METAR KOD: EPKT


METAR: EPKT 222200Z 26009KT 9999 FEW013 BKN026 08/06 Q1010


BLOK
Pogoda METAR
222200Z
Dzien: 22, Godzina: 22:00 UTC.
26009KT
Wiatr z kierunku 260, o predkosci 17 km/h
9999
Widzialnosc pozioma ponad 10 km.
FEW013
1/8 - 2/8 pokrycia nieba, chmurami o podstawie: 390 metrow
BKN026
5/8 - 7/8 pokrycia nieba, chmurami o podstawie: 780 metrow
08/06
Temperatura: powietrze 8°C, punkt rosy 6°C . Wilgotnosc wzgledna 75 %
Q1010
Cisnienie: 1010 hPa

Pogoda na innym lotnisku

Pogoda Gdansk-Rebiechowo WEATHER Poland  
Pogoda Katowice WEATHER Poland  
Pogoda Krakow WEATHER Poland  
Pogoda Poznan WEATHER Poland  
Pogoda Rzeszow-Jasionka WEATHER Poland  
Pogoda Szczecin WEATHER Poland  
Pogoda Warszawa-Okecie WEATHER Poland  
Pogoda Wroclaw Ii WEATHER Poland  

Pogoda w inny kraju

Strona startowa

(C) by GREGOR 2007
Ogłoszenia Towarzyskie